Terminal Aerodrome Forecast
Issued by NWS

Home | Current Version | Previous Version | Text Only | Print | Product List | Glossary On
Versions: 1 2 3 4 5 6 7 8 9 10 11 12 13 14 15 16 17 18 19 20 21 22 23 24 25 26 27 28 29
000
FTUS43 KDLH 242100 AAB
TAFBRD
TAF AMD
KBRD 242155Z 2422/2518 24003KT P6SM SCT015 OVC100
      TEMPO 2422/2424 6SM BR BKN015 OVC050
     FM250000 27004KT P6SM OVC015
      TEMPO 2500/2504 4SM -SN OVC012
     FM250400 02008KT 3SM -SN BR OVC012
     FM251200 03005KT P6SM SCT012 BKN035=

USA.gov is the U.S. government's official web portal to all federal, state and local government web resources and services.